sensor_id;sensor_type;location;lat;lon;timestamp;P1;durP1;ratioP1;P2;durP2;ratioP2
16139;SDS011;8175;49.326;12.690;2023-09-12T06:59:05;9.93;;;9.03;;
16139;SDS011;8175;49.326;12.690;2023-09-12T07:01:32;9.97;;;9.00;;
16139;SDS011;8175;49.326;12.690;2023-09-12T07:03:57;9.40;;;8.60;;
16139;SDS011;8175;49.326;12.690;2023-09-12T07:06:23;9.07;;;8.17;;
16139;SDS011;8175;49.326;12.690;2023-09-12T07:08:49;9.73;;;8.83;;
16139;SDS011;8175;49.326;12.690;2023-09-12T07:11:16;9.47;;;8.57;;
16139;SDS011;8175;49.326;12.690;2023-09-12T07:13:42;9.10;;;8.30;;
16139;SDS011;8175;49.326;12.690;2023-09-12T07:16:07;9.63;;;8.83;;
16139;SDS011;8175;49.326;12.690;2023-09-12T07:18:33;9.43;;;8.70;;
16139;SDS011;8175;49.326;12.690;2023-09-12T07:21:03;9.45;;;8.65;;
16139;SDS011;8175;49.326;12.690;2023-09-12T07:23:29;9.02;;;8.20;;
16139;SDS011;8175;49.326;12.690;2023-09-12T07:25:55;8.63;;;7.93;;
16139;SDS011;8175;49.326;12.690;2023-09-12T07:28:25;8.73;;;7.93;;
16139;SDS011;8175;49.326;12.690;2023-09-12T07:30:56;8.63;;;7.93;;
16139;SDS011;8175;49.326;12.690;2023-09-12T07:33:22;8.90;;;8.10;;
16139;SDS011;8175;49.326;12.690;2023-09-12T07:35:48;8.57;;;7.88;;
16139;SDS011;8175;49.326;12.690;2023-09-12T07:38:16;8.68;;;7.97;;
16139;SDS011;8175;49.326;12.690;2023-09-12T07:40:42;9.00;;;8.27;;
16139;SDS011;8175;49.326;12.690;2023-09-12T07:43:08;8.93;;;8.13;;
16139;SDS011;8175;49.326;12.690;2023-09-12T07:45:34;8.45;;;7.72;;
16139;SDS011;8175;49.326;12.690;2023-09-12T07:48:05;8.40;;;7.70;;
16139;SDS011;8175;49.326;12.690;2023-09-12T07:50:32;7.88;;;7.20;;
16139;SDS011;8175;49.326;12.690;2023-09-12T07:52:58;7.40;;;6.80;;
16139;SDS011;8175;49.326;12.690;2023-09-12T07:55:23;8.35;;;7.55;;
16139;SDS011;8175;49.326;12.690;2023-09-12T07:57:49;8.00;;;7.30;;
16139;SDS011;8175;49.326;12.690;2023-09-12T08:00:15;7.47;;;6.88;;
16139;SDS011;8175;49.326;12.690;2023-09-12T08:02:42;7.60;;;7.00;;
16139;SDS011;8175;49.326;12.690;2023-09-12T08:05:08;8.18;;;7.47;;
16139;SDS011;8175;49.326;12.690;2023-09-12T08:07:34;8.18;;;7.47;;
16139;SDS011;8175;49.326;12.690;2023-09-12T08:10:00;8.27;;;7.47;;
16139;SDS011;8175;49.326;12.690;2023-09-12T08:12:27;8.02;;;7.30;;
16139;SDS011;8175;49.326;12.690;2023-09-12T08:14:53;7.68;;;7.07;;
16139;SDS011;8175;49.326;12.690;2023-09-12T08:17:20;8.25;;;6.97;;
16139;SDS011;8175;49.326;12.690;2023-09-12T08:19:47;7.47;;;6.82;;
16139;SDS011;8175;49.326;12.690;2023-09-12T08:22:12;7.57;;;6.97;;
16139;SDS011;8175;49.326;12.690;2023-09-12T08:24:38;8.30;;;7.60;;
16139;SDS011;8175;49.326;12.690;2023-09-12T08:27:04;8.27;;;7.15;;
16139;SDS011;8175;49.326;12.690;2023-09-12T08:29:31;7.82;;;7.18;;
16139;SDS011;8175;49.326;12.690;2023-09-12T08:31:57;8.40;;;7.60;;
16139;SDS011;8175;49.326;12.690;2023-09-12T08:34:24;8.23;;;7.43;;
16139;SDS011;8175;49.326;12.690;2023-09-12T08:36:49;8.68;;;7.85;;
16139;SDS011;8175;49.326;12.690;2023-09-12T08:39:19;8.10;;;7.40;;
16139;SDS011;8175;49.326;12.690;2023-09-12T08:41:49;7.75;;;7.05;;
16139;SDS011;8175;49.326;12.690;2023-09-12T08:44:15;8.90;;;8.10;;
16139;SDS011;8175;49.326;12.690;2023-09-12T08:46:41;8.13;;;7.43;;
16139;SDS011;8175;49.326;12.690;2023-09-12T08:49:08;8.05;;;7.35;;
16139;SDS011;8175;49.326;12.690;2023-09-12T08:51:35;8.80;;;8.00;;
16139;SDS011;8175;49.326;12.690;2023-09-12T08:54:02;8.00;;;7.40;;
16139;SDS011;8175;49.326;12.690;2023-09-12T08:56:29;7.82;;;7.22;;
16139;SDS011;8175;49.326;12.690;2023-09-12T08:58:55;8.27;;;7.55;;
16139;SDS011;8175;49.326;12.690;2023-09-12T09:01:23;8.30;;;7.60;;
16139;SDS011;8175;49.326;12.690;2023-09-12T09:03:52;7.68;;;7.10;;
16139;SDS011;8175;49.326;12.690;2023-09-12T09:06:19;8.23;;;7.40;;
16139;SDS011;8175;49.326;12.690;2023-09-12T09:08:46;8.73;;;7.93;;
16139;SDS011;8175;49.326;12.690;2023-09-12T09:11:14;8.75;;;7.95;;
16139;SDS011;8175;49.326;12.690;2023-09-12T09:13:39;8.60;;;7.90;;
16139;SDS011;8175;49.326;12.690;2023-09-12T09:18:54;8.52;;;7.72;;
16139;SDS011;8175;49.326;12.690;2023-09-12T09:21:30;8.43;;;7.63;;
16139;SDS011;8175;49.326;12.690;2023-09-12T09:24:16;8.00;;;7.35;;
16139;SDS011;8175;49.326;12.690;2023-09-12T09:26:49;8.55;;;7.78;;
16139;SDS011;8175;49.326;12.690;2023-09-12T09:29:16;7.80;;;7.10;;
16139;SDS011;8175;49.326;12.690;2023-09-12T09:31:44;7.88;;;7.28;;
16139;SDS011;8175;49.326;12.690;2023-09-12T09:36:41;7.30;;;6.70;;
16139;SDS011;8175;49.326;12.690;2023-09-12T09:39:08;8.45;;;7.68;;
16139;SDS011;8175;49.326;12.690;2023-09-12T09:41:34;7.13;;;6.63;;
16139;SDS011;8175;49.326;12.690;2023-09-12T09:44:01;7.32;;;6.75;;
16139;SDS011;8175;49.326;12.690;2023-09-12T09:46:29;7.43;;;6.72;;
16139;SDS011;8175;49.326;12.690;2023-09-12T09:48:54;7.32;;;6.80;;
16139;SDS011;8175;49.326;12.690;2023-09-12T09:51:20;7.63;;;6.72;;
16139;SDS011;8175;49.326;12.690;2023-09-12T09:53:46;7.57;;;6.88;;
16139;SDS011;8175;49.326;12.690;2023-09-12T09:56:17;7.80;;;7.20;;
16139;SDS011;8175;49.326;12.690;2023-09-12T09:58:49;7.43;;;6.82;;
16139;SDS011;8175;49.326;12.690;2023-09-12T10:01:18;7.75;;;7.15;;
16139;SDS011;8175;49.326;12.690;2023-09-12T10:03:45;7.22;;;6.72;;
16139;SDS011;8175;49.326;12.690;2023-09-12T10:06:15;7.35;;;6.78;;
16139;SDS011;8175;49.326;12.690;2023-09-12T10:08:49;7.85;;;7.25;;
16139;SDS011;8175;49.326;12.690;2023-09-12T10:11:16;6.70;;;6.20;;
16139;SDS011;8175;49.326;12.690;2023-09-12T10:13:49;7.18;;;6.68;;
16139;SDS011;8175;49.326;12.690;2023-09-12T10:16:18;7.35;;;6.75;;
16139;SDS011;8175;49.326;12.690;2023-09-12T10:19:32;7.85;;;7.18;;
16139;SDS011;8175;49.326;12.690;2023-09-12T10:21:49;6.78;;;6.15;;
16139;SDS011;8175;49.326;12.690;2023-09-12T10:24:20;7.43;;;6.82;;
16139;SDS011;8175;49.326;12.690;2023-09-12T10:26:48;7.55;;;7.03;;
16139;SDS011;8175;49.326;12.690;2023-09-12T10:29:16;7.15;;;6.65;;
16139;SDS011;8175;49.326;12.690;2023-09-12T10:31:41;7.63;;;6.90;;
16139;SDS011;8175;49.326;12.690;2023-09-12T10:34:08;9.68;;;7.25;;
16139;SDS011;8175;49.326;12.690;2023-09-12T10:36:38;8.40;;;7.70;;
16139;SDS011;8175;49.326;12.690;2023-09-12T10:39:05;7.68;;;7.10;;
16139;SDS011;8175;49.326;12.690;2023-09-12T10:41:32;7.00;;;6.43;;
16139;SDS011;8175;49.326;12.690;2023-09-12T10:44:01;7.88;;;7.15;;
16139;SDS011;8175;49.326;12.690;2023-09-12T10:46:35;7.32;;;6.82;;
16139;SDS011;8175;49.326;12.690;2023-09-12T10:49:08;7.70;;;7.10;;
16139;SDS011;8175;49.326;12.690;2023-09-12T10:51:42;7.28;;;6.68;;
16139;SDS011;8175;49.326;12.690;2023-09-12T10:54:12;8.25;;;7.28;;
16139;SDS011;8175;49.326;12.690;2023-09-12T10:57:02;7.57;;;7.07;;
16139;SDS011;8175;49.326;12.690;2023-09-12T11:02:30;7.25;;;6.63;;
16139;SDS011;8175;49.326;12.690;2023-09-12T11:05:00;7.60;;;7.00;;
16139;SDS011;8175;49.326;12.690;2023-09-12T11:12:41;11.27;;;7.60;;
16139;SDS011;8175;49.326;12.690;2023-09-12T11:15:08;7.90;;;7.30;;
16139;SDS011;8175;49.326;12.690;2023-09-12T11:17:38;7.75;;;7.00;;
16139;SDS011;8175;49.326;12.690;2023-09-12T11:20:14;6.90;;;6.40;;
16139;SDS011;8175;49.326;12.690;2023-09-12T11:22:41;7.57;;;6.97;;
16139;SDS011;8175;49.326;12.690;2023-09-12T11:25:18;7.82;;;7.20;;
16139;SDS011;8175;49.326;12.690;2023-09-12T11:30:20;7.72;;;7.13;;
16139;SDS011;8175;49.326;12.690;2023-09-12T11:32:48;7.47;;;6.93;;
16139;SDS011;8175;49.326;12.690;2023-09-12T11:35:16;7.82;;;7.13;;
16139;SDS011;8175;49.326;12.690;2023-09-12T11:37:50;8.13;;;7.43;;
16139;SDS011;8175;49.326;12.690;2023-09-12T11:40:24;7.80;;;7.10;;
16139;SDS011;8175;49.326;12.690;2023-09-12T11:42:51;8.23;;;7.43;;
16139;SDS011;8175;49.326;12.690;2023-09-12T11:45:20;7.80;;;7.07;;
16139;SDS011;8175;49.326;12.690;2023-09-12T11:47:47;7.18;;;6.57;;
16139;SDS011;8175;49.326;12.690;2023-09-12T11:55:31;7.30;;;6.72;;
16139;SDS011;8175;49.326;12.690;2023-09-12T11:57:58;8.02;;;7.32;;
16139;SDS011;8175;49.326;12.690;2023-09-12T12:00:24;7.53;;;6.82;;
16139;SDS011;8175;49.326;12.690;2023-09-12T12:02:52;7.97;;;7.38;;
16139;SDS011;8175;49.326;12.690;2023-09-12T12:05:18;7.05;;;6.45;;
16139;SDS011;8175;49.326;12.690;2023-09-12T12:07:44;7.13;;;6.43;;
16139;SDS011;8175;49.326;12.690;2023-09-12T12:10:12;7.85;;;7.13;;
16139;SDS011;8175;49.326;12.690;2023-09-12T12:12:38;7.47;;;6.78;;
16139;SDS011;8175;49.326;12.690;2023-09-12T12:15:04;7.88;;;7.18;;
16139;SDS011;8175;49.326;12.690;2023-09-12T12:17:36;7.22;;;6.72;;
16139;SDS011;8175;49.326;12.690;2023-09-12T12:20:02;8.13;;;7.43;;
16139;SDS011;8175;49.326;12.690;2023-09-12T12:22:32;7.47;;;6.88;;
16139;SDS011;8175;49.326;12.690;2023-09-12T12:25:04;7.05;;;6.55;;
16139;SDS011;8175;49.326;12.690;2023-09-12T12:27:31;8.40;;;7.80;;
16139;SDS011;8175;49.326;12.690;2023-09-12T12:29:57;7.55;;;6.85;;
16139;SDS011;8175;49.326;12.690;2023-09-12T12:32:22;7.35;;;6.78;;
16139;SDS011;8175;49.326;12.690;2023-09-12T12:34:48;7.32;;;6.63;;
16139;SDS011;8175;49.326;12.690;2023-09-12T12:37:14;7.45;;;6.70;;
16139;SDS011;8175;49.326;12.690;2023-09-12T12:39:43;7.88;;;7.07;;
16139;SDS011;8175;49.326;12.690;2023-09-12T12:42:09;6.55;;;5.95;;
16139;SDS011;8175;49.326;12.690;2023-09-12T12:44:34;7.15;;;6.55;;
16139;SDS011;8175;49.326;12.690;2023-09-12T12:47:06;6.93;;;6.40;;
16139;SDS011;8175;49.326;12.690;2023-09-12T12:49:37;6.43;;;5.93;;
16139;SDS011;8175;49.326;12.690;2023-09-12T12:52:04;7.25;;;6.65;;
16139;SDS011;8175;49.326;12.690;2023-09-12T12:54:33;6.78;;;6.18;;
16139;SDS011;8175;49.326;12.690;2023-09-12T12:56:59;9.00;;;6.63;;
16139;SDS011;8175;49.326;12.690;2023-09-12T12:59:26;9.00;;;6.57;;
16139;SDS011;8175;49.326;12.690;2023-09-12T13:01:52;6.90;;;6.20;;
16139;SDS011;8175;49.326;12.690;2023-09-12T13:04:17;6.88;;;6.28;;
16139;SDS011;8175;49.326;12.690;2023-09-12T13:06:43;7.15;;;6.55;;
16139;SDS011;8175;49.326;12.690;2023-09-12T13:09:09;6.40;;;5.95;;
16139;SDS011;8175;49.326;12.690;2023-09-12T13:11:36;7.15;;;6.63;;
16139;SDS011;8175;49.326;12.690;2023-09-12T13:14:03;6.57;;;5.97;;
16139;SDS011;8175;49.326;12.690;2023-09-12T13:16:35;6.80;;;6.20;;
16139;SDS011;8175;49.326;12.690;2023-09-12T13:19:02;6.53;;;6.03;;
16139;SDS011;8175;49.326;12.690;2023-09-12T13:21:28;7.50;;;6.80;;
16139;SDS011;8175;49.326;12.690;2023-09-12T13:23:54;7.03;;;6.53;;
16139;SDS011;8175;49.326;12.690;2023-09-12T13:26:20;6.15;;;5.72;;
16139;SDS011;8175;49.326;12.690;2023-09-12T13:28:45;6.97;;;6.38;;
16139;SDS011;8175;49.326;12.690;2023-09-12T13:31:11;6.03;;;5.43;;
16139;SDS011;8175;49.326;12.690;2023-09-12T13:33:37;6.95;;;6.30;;
16139;SDS011;8175;49.326;12.690;2023-09-12T13:36:02;6.38;;;5.88;;
16139;SDS011;8175;49.326;12.690;2023-09-12T13:38:28;6.93;;;6.30;;
16139;SDS011;8175;49.326;12.690;2023-09-12T13:40:54;6.47;;;5.88;;
16139;SDS011;8175;49.326;12.690;2023-09-12T13:43:19;7.10;;;6.50;;
16139;SDS011;8175;49.326;12.690;2023-09-12T13:45:45;6.25;;;5.75;;
16139;SDS011;8175;49.326;12.690;2023-09-12T13:48:11;6.85;;;6.28;;
16139;SDS011;8175;49.326;12.690;2023-09-12T13:50:38;6.47;;;5.88;;
16139;SDS011;8175;49.326;12.690;2023-09-12T13:53:04;7.25;;;6.55;;
16139;SDS011;8175;49.326;12.690;2023-09-12T13:55:31;8.38;;;6.47;;
16139;SDS011;8175;49.326;12.690;2023-09-12T13:57:58;7.72;;;7.07;;
16139;SDS011;8175;49.326;12.690;2023-09-12T14:00:24;7.05;;;6.35;;
16139;SDS011;8175;49.326;12.690;2023-09-12T14:02:50;7.80;;;7.00;;
16139;SDS011;8175;49.326;12.690;2023-09-12T14:05:15;6.88;;;6.28;;
16139;SDS011;8175;49.326;12.690;2023-09-12T14:07:41;8.15;;;7.32;;
16139;SDS011;8175;49.326;12.690;2023-09-12T14:10:07;7.70;;;7.00;;
16139;SDS011;8175;49.326;12.690;2023-09-12T14:12:32;7.95;;;6.88;;
16139;SDS011;8175;49.326;12.690;2023-09-12T14:14:58;7.80;;;7.18;;
16139;SDS011;8175;49.326;12.690;2023-09-12T14:17:24;7.85;;;7.25;;
16139;SDS011;8175;49.326;12.690;2023-09-12T14:19:50;8.07;;;7.30;;
16139;SDS011;8175;49.326;12.690;2023-09-12T14:22:15;8.35;;;7.65;;
16139;SDS011;8175;49.326;12.690;2023-09-12T14:24:41;7.20;;;6.60;;
16139;SDS011;8175;49.326;12.690;2023-09-12T14:27:07;7.15;;;6.50;;
16139;SDS011;8175;49.326;12.690;2023-09-12T14:29:32;8.30;;;7.47;;
16139;SDS011;8175;49.326;12.690;2023-09-12T14:31:58;6.97;;;6.43;;
16139;SDS011;8175;49.326;12.690;2023-09-12T14:34:24;7.65;;;6.97;;
16139;SDS011;8175;49.326;12.690;2023-09-12T14:36:54;7.05;;;6.47;;
16139;SDS011;8175;49.326;12.690;2023-09-12T14:39:21;9.50;;;6.88;;
16139;SDS011;8175;49.326;12.690;2023-09-12T14:41:46;7.90;;;7.05;;
16139;SDS011;8175;49.326;12.690;2023-09-12T14:44:17;8.13;;;7.32;;
16139;SDS011;8175;49.326;12.690;2023-09-12T14:46:43;10.38;;;6.95;;
16139;SDS011;8175;49.326;12.690;2023-09-12T14:49:09;7.40;;;6.80;;
16139;SDS011;8175;49.326;12.690;2023-09-12T14:51:35;7.05;;;6.45;;
16139;SDS011;8175;49.326;12.690;2023-09-12T14:54:02;7.55;;;6.85;;
16139;SDS011;8175;49.326;12.690;2023-09-12T14:56:28;7.50;;;6.85;;
16139;SDS011;8175;49.326;12.690;2023-09-12T14:58:54;7.45;;;6.80;;
16139;SDS011;8175;49.326;12.690;2023-09-12T15:01:20;7.35;;;6.63;;
16139;SDS011;8175;49.326;12.690;2023-09-12T15:03:45;8.88;;;7.35;;
16139;SDS011;8175;49.326;12.690;2023-09-12T15:06:11;7.80;;;7.10;;
16139;SDS011;8175;49.326;12.690;2023-09-12T15:08:36;7.22;;;6.72;;
16139;SDS011;8175;49.326;12.690;2023-09-12T15:11:02;7.13;;;6.53;;
16139;SDS011;8175;49.326;12.690;2023-09-12T15:13:29;7.65;;;7.03;;
16139;SDS011;8175;49.326;12.690;2023-09-12T15:15:54;18.98;;;8.82;;
16139;SDS011;8175;49.326;12.690;2023-09-12T15:18:20;29.05;;;9.23;;
16139;SDS011;8175;49.326;12.690;2023-09-12T15:20:46;14.20;;;8.55;;
16139;SDS011;8175;49.326;12.690;2023-09-12T15:23:11;14.02;;;7.53;;
16139;SDS011;8175;49.326;12.690;2023-09-12T15:25:37;8.10;;;6.75;;
16139;SDS011;8175;49.326;12.690;2023-09-12T15:28:03;6.95;;;6.35;;
16139;SDS011;8175;49.326;12.690;2023-09-12T15:30:29;6.53;;;6.03;;
16139;SDS011;8175;49.326;12.690;2023-09-12T15:32:55;8.07;;;7.20;;
16139;SDS011;8175;49.326;12.690;2023-09-12T15:35:21;7.30;;;6.72;;
16139;SDS011;8175;49.326;12.690;2023-09-12T15:37:46;7.28;;;6.68;;
16139;SDS011;8175;49.326;12.690;2023-09-12T15:40:12;7.88;;;7.18;;
16139;SDS011;8175;49.326;12.690;2023-09-12T15:42:38;7.47;;;6.88;;
16139;SDS011;8175;49.326;12.690;2023-09-12T15:45:04;7.35;;;6.75;;
16139;SDS011;8175;49.326;12.690;2023-09-12T15:47:32;8.13;;;7.43;;
16139;SDS011;8175;49.326;12.690;2023-09-12T15:49:58;7.95;;;7.35;;
16139;SDS011;8175;49.326;12.690;2023-09-12T15:52:24;9.35;;;8.35;;
16139;SDS011;8175;49.326;12.690;2023-09-12T15:54:50;8.48;;;7.43;;
16139;SDS011;8175;49.326;12.690;2023-09-12T15:57:16;8.30;;;7.50;;
16139;SDS011;8175;49.326;12.690;2023-09-12T15:59:42;8.18;;;7.38;;
16139;SDS011;8175;49.326;12.690;2023-09-12T16:02:08;12.45;;;7.70;;
16139;SDS011;8175;49.326;12.690;2023-09-12T16:04:33;8.13;;;7.40;;
16139;SDS011;8175;49.326;12.690;2023-09-12T16:06:59;8.48;;;7.68;;
16139;SDS011;8175;49.326;12.690;2023-09-12T16:09:25;8.02;;;7.32;;
16139;SDS011;8175;49.326;12.690;2023-09-12T16:11:50;12.63;;;7.93;;
16139;SDS011;8175;49.326;12.690;2023-09-12T16:14:16;8.73;;;8.02;;
16139;SDS011;8175;49.326;12.690;2023-09-12T16:16:42;9.18;;;8.38;;
16139;SDS011;8175;49.326;12.690;2023-09-12T16:19:07;9.20;;;8.40;;
16139;SDS011;8175;49.326;12.690;2023-09-12T16:21:36;8.57;;;7.75;;
16139;SDS011;8175;49.326;12.690;2023-09-12T16:24:02;8.52;;;7.85;;
16139;SDS011;8175;49.326;12.690;2023-09-12T16:26:28;9.05;;;8.25;;
16139;SDS011;8175;49.326;12.690;2023-09-12T16:28:53;9.57;;;8.68;;
16139;SDS011;8175;49.326;12.690;2023-09-12T16:31:20;8.70;;;7.80;;
16139;SDS011;8175;49.326;12.690;2023-09-12T16:33:45;8.73;;;7.95;;
16139;SDS011;8175;49.326;12.690;2023-09-12T16:36:11;8.68;;;7.82;;
16139;SDS011;8175;49.326;12.690;2023-09-12T16:38:37;9.15;;;8.25;;
16139;SDS011;8175;49.326;12.690;2023-09-12T16:41:03;10.77;;;8.13;;
16139;SDS011;8175;49.326;12.690;2023-09-12T16:43:30;7.97;;;7.25;;
16139;SDS011;8175;49.326;12.690;2023-09-12T16:45:56;9.48;;;7.90;;
16139;SDS011;8175;49.326;12.690;2023-09-12T16:48:21;8.68;;;7.97;;
16139;SDS011;8175;49.326;12.690;2023-09-12T16:50:47;8.55;;;7.82;;
16139;SDS011;8175;49.326;12.690;2023-09-12T16:53:13;12.25;;;9.05;;
16139;SDS011;8175;49.326;12.690;2023-09-12T16:55:40;9.57;;;8.77;;
16139;SDS011;8175;49.326;12.690;2023-09-12T16:58:07;9.15;;;8.25;;
16139;SDS011;8175;49.326;12.690;2023-09-12T17:00:33;9.10;;;8.18;;
16139;SDS011;8175;49.326;12.690;2023-09-12T17:02:59;9.48;;;8.68;;
16139;SDS011;8175;49.326;12.690;2023-09-12T17:05:24;9.23;;;8.43;;
16139;SDS011;8175;49.326;12.690;2023-09-12T17:07:51;8.88;;;8.00;;
16139;SDS011;8175;49.326;12.690;2023-09-12T17:10:17;9.55;;;8.80;;
16139;SDS011;8175;49.326;12.690;2023-09-12T17:12:42;9.98;;;9.07;;
16139;SDS011;8175;49.326;12.690;2023-09-12T17:15:08;11.45;;;9.05;;
16139;SDS011;8175;49.326;12.690;2023-09-12T17:17:36;9.43;;;8.63;;
16139;SDS011;8175;49.326;12.690;2023-09-12T17:20:03;9.43;;;8.52;;
16139;SDS011;8175;49.326;12.690;2023-09-12T17:22:28;9.57;;;8.77;;
16139;SDS011;8175;49.326;12.690;2023-09-12T17:24:54;9.20;;;8.40;;
16139;SDS011;8175;49.326;12.690;2023-09-12T17:27:22;9.13;;;8.32;;
16139;SDS011;8175;49.326;12.690;2023-09-12T17:29:48;10.38;;;9.32;;
16139;SDS011;8175;49.326;12.690;2023-09-12T17:32:14;10.77;;;9.77;;
16139;SDS011;8175;49.326;12.690;2023-09-12T17:34:40;10.90;;;9.90;;
16139;SDS011;8175;49.326;12.690;2023-09-12T17:37:07;10.30;;;9.32;;
16139;SDS011;8175;49.326;12.690;2023-09-12T17:39:34;10.50;;;9.60;;
16139;SDS011;8175;49.326;12.690;2023-09-12T17:42:00;9.73;;;8.73;;
16139;SDS011;8175;49.326;12.690;2023-09-12T17:44:26;11.50;;;10.27;;
16139;SDS011;8175;49.326;12.690;2023-09-12T17:46:51;10.33;;;9.43;;
16139;SDS011;8175;49.326;12.690;2023-09-12T17:49:17;10.03;;;9.13;;
16139;SDS011;8175;49.326;12.690;2023-09-12T17:51:42;10.80;;;9.70;;
16139;SDS011;8175;49.326;12.690;2023-09-12T17:54:08;10.07;;;9.10;;
16139;SDS011;8175;49.326;12.690;2023-09-12T17:56:34;9.83;;;8.83;;
16139;SDS011;8175;49.326;12.690;2023-09-12T17:59:00;9.63;;;8.73;;
16139;SDS011;8175;49.326;12.690;2023-09-12T18:01:25;10.07;;;9.17;;
16139;SDS011;8175;49.326;12.690;2023-09-12T18:03:51;9.93;;;9.10;;
16139;SDS011;8175;49.326;12.690;2023-09-12T18:06:19;9.57;;;8.57;;
16139;SDS011;8175;49.326;12.690;2023-09-12T18:08:46;9.80;;;8.93;;
16139;SDS011;8175;49.326;12.690;2023-09-12T18:11:11;9.73;;;8.93;;
16139;SDS011;8175;49.326;12.690;2023-09-12T18:13:37;9.97;;;9.07;;
16139;SDS011;8175;49.326;12.690;2023-09-12T18:16:04;10.97;;;9.97;;
16139;SDS011;8175;49.326;12.690;2023-09-12T18:18:30;10.27;;;9.47;;
16139;SDS011;8175;49.326;12.690;2023-09-12T18:20:56;10.33;;;9.37;;
16139;SDS011;8175;49.326;12.690;2023-09-12T18:23:22;9.97;;;9.00;;
16139;SDS011;8175;49.326;12.690;2023-09-12T18:25:48;9.70;;;8.70;;
16139;SDS011;8175;49.326;12.690;2023-09-12T18:28:17;12.03;;;9.50;;
16139;SDS011;8175;49.326;12.690;2023-09-12T18:31:11;11.67;;;9.50;;
16139;SDS011;8175;49.326;12.690;2023-09-12T18:33:38;10.20;;;9.30;;
16139;SDS011;8175;49.326;12.690;2023-09-12T18:36:05;10.40;;;9.50;;
16139;SDS011;8175;49.326;12.690;2023-09-12T18:38:33;9.90;;;9.10;;
16139;SDS011;8175;49.326;12.690;2023-09-12T18:41:00;10.10;;;9.03;;
16139;SDS011;8175;49.326;12.690;2023-09-12T18:43:26;10.97;;;9.97;;
16139;SDS011;8175;49.326;12.690;2023-09-12T18:45:52;10.37;;;9.37;;
16139;SDS011;8175;49.326;12.690;2023-09-12T18:48:18;10.70;;;9.70;;
16139;SDS011;8175;49.326;12.690;2023-09-12T18:50:45;10.23;;;9.33;;
16139;SDS011;8175;49.326;12.690;2023-09-12T18:53:13;10.57;;;9.60;;
16139;SDS011;8175;49.326;12.690;2023-09-12T18:55:43;10.77;;;9.77;;
16139;SDS011;8175;49.326;12.690;2023-09-12T18:58:09;11.67;;;10.03;;
16139;SDS011;8175;49.326;12.690;2023-09-12T19:00:38;10.83;;;9.83;;
16139;SDS011;8175;49.326;12.690;2023-09-12T19:03:08;10.03;;;9.13;;
16139;SDS011;8175;49.326;12.690;2023-09-12T19:05:33;10.70;;;9.70;;
16139;SDS011;8175;49.326;12.690;2023-09-12T19:07:59;10.60;;;9.60;;
16139;SDS011;8175;49.326;12.690;2023-09-12T19:10:26;10.07;;;9.17;;
16139;SDS011;8175;49.326;12.690;2023-09-12T19:12:52;10.07;;;8.90;;
16139;SDS011;8175;49.326;12.690;2023-09-12T19:15:18;10.43;;;9.50;;
16139;SDS011;8175;49.326;12.690;2023-09-12T19:17:44;9.53;;;8.67;;
16139;SDS011;8175;49.326;12.690;2023-09-12T19:20:10;10.83;;;9.77;;
16139;SDS011;8175;49.326;12.690;2023-09-12T19:22:39;10.77;;;9.87;;
16139;SDS011;8175;49.326;12.690;2023-09-12T19:25:05;10.70;;;9.53;;
16139;SDS011;8175;49.326;12.690;2023-09-12T19:27:34;10.17;;;9.27;;
16139;SDS011;8175;49.326;12.690;2023-09-12T19:30:01;10.47;;;9.47;;
16139;SDS011;8175;49.326;12.690;2023-09-12T19:32:28;10.00;;;9.10;;
16139;SDS011;8175;49.326;12.690;2023-09-12T19:34:55;9.67;;;8.77;;
16139;SDS011;8175;49.326;12.690;2023-09-12T19:37:22;10.53;;;9.40;;
16139;SDS011;8175;49.326;12.690;2023-09-12T19:39:48;10.87;;;9.03;;
16139;SDS011;8175;49.326;12.690;2023-09-12T19:42:14;10.47;;;9.57;;
16139;SDS011;8175;49.326;12.690;2023-09-12T19:44:39;11.23;;;9.50;;
16139;SDS011;8175;49.326;12.690;2023-09-12T19:47:15;10.80;;;9.70;;
16139;SDS011;8175;49.326;12.690;2023-09-12T19:49:41;10.53;;;9.57;;
16139;SDS011;8175;49.326;12.690;2023-09-12T19:52:07;10.03;;;9.03;;
16139;SDS011;8175;49.326;12.690;2023-09-12T19:54:32;9.70;;;8.90;;
16139;SDS011;8175;49.326;12.690;2023-09-12T19:56:58;10.43;;;9.37;;
16139;SDS011;8175;49.326;12.690;2023-09-12T19:59:25;9.73;;;8.83;;
16139;SDS011;8175;49.326;12.690;2023-09-12T20:01:51;10.93;;;9.73;;
16139;SDS011;8175;49.326;12.690;2023-09-12T20:04:19;9.93;;;8.97;;
16139;SDS011;8175;49.326;12.690;2023-09-12T20:06:45;10.37;;;9.47;;
16139;SDS011;8175;49.326;12.690;2023-09-12T20:09:11;10.10;;;9.10;;
16139;SDS011;8175;49.326;12.690;2023-09-12T20:11:40;11.07;;;9.43;;
16139;SDS011;8175;49.326;12.690;2023-09-12T20:14:09;10.07;;;9.17;;
16139;SDS011;8175;49.326;12.690;2023-09-12T20:16:36;10.03;;;9.17;;
16139;SDS011;8175;49.326;12.690;2023-09-12T20:19:02;9.60;;;8.80;;
16139;SDS011;8175;49.326;12.690;2023-09-12T20:21:30;9.90;;;8.90;;
16139;SDS011;8175;49.326;12.690;2023-09-12T20:23:58;9.97;;;9.10;;
16139;SDS011;8175;49.326;12.690;2023-09-12T20:26:24;10.73;;;9.63;;
16139;SDS011;8175;49.326;12.690;2023-09-12T20:28:50;9.37;;;8.57;;
16139;SDS011;8175;49.326;12.690;2023-09-12T20:31:17;10.27;;;9.27;;
16139;SDS011;8175;49.326;12.690;2023-09-12T20:33:43;10.63;;;9.73;;
16139;SDS011;8175;49.326;12.690;2023-09-12T20:36:09;10.30;;;8.97;;
